Mba Future — IBWM — position and weather

sailwx.info

Track history (hours):
 
Tides and Currents Weather Stations Pressure Air Temp Water Temp Dewpoint Dewpoint Depression Visibility Wind Speed Wind Dir Waves Ship Positions

Mba Future

Last reported at 2017-Nov-17 14:20 UTC. Time now 2017-Dec-15 11:59 UTC.
Position N 17°20' W 060°60'.
Warning: this ship's position is 27 days out of date.

Length 229 m; draft 13.6 m.

Type: Cargo ship. MMSI: 247276600.

Date/timePositionNaut miles runAvg speedWind from/ knotsBaromVisibWave heightAir tempDewpointWater temp
2017-Nov-17 14:20N 17°20' W 060°60'411.0
2017-Nov-17 14:00N 17°22' W 061°03'611.0
2017-Nov-17 13:30N 17°25' W 061°07'510.8
2017-Nov-17 13:00N 17°28' W 061°12'510.6
2017-Nov-17 12:30N 17°32' W 061°16'510.6
2017-Nov-17 12:00N 17°35' W 061°21'510.6
2017-Nov-17 11:30N 17°38' W 061°25'510.6
2017-Nov-17 11:00N 17°41' W 061°30'510.7
2017-Nov-17 10:30N 17°44' W 061°34'510.9
2017-Nov-17 10:00N 17°47' W 061°39'611.1
2017-Nov-17 09:30N 17°51' W 061°44'911.0
2017-Nov-17 08:42N 17°56' W 061°51'310.9
2017-Nov-17 08:28N 17°58' W 061°53'510.8
2017-Nov-17 08:00N 18°01' W 061°57'510.8
2017-Nov-17 07:30N 18°04' W 062°02'510.9
2017-Nov-17 07:00N 18°07' W 062°06'611.0
2017-Nov-17 06:30N 18°10' W 062°11'611.1
2017-Nov-17 06:00N 18°14' W 062°16'611.2
2017-Nov-17 05:29N 18°17' W 062°21'611.5
2017-Nov-17 05:00N 18°20' W 062°25'711.5
2017-Nov-17 04:24N 18°24' W 062°31'611.5
2017-Nov-17 03:55N 18°27' W 062°36'811.4
2017-Nov-17 03:12N 18°31' W 062°44'  
2017-Nov-12 08:00N 23°47' W 084°21'510.4
2017-Nov-12 07:29N 23°48' W 084°27'611.1
2017-Nov-12 06:59N 23°51' W 084°32'611.2
2017-Nov-12 06:29N 23°54' W 084°37'511.2
2017-Nov-12 06:00N 23°57' W 084°42'611.1
2017-Nov-12 05:30N 24°01' W 084°47'611.1
2017-Nov-12 04:59N 24°04' W 084°52'45910.1
2017-Nov-10 07:37N 29°56' W 090°22'  
Track history (hours):
 
Tides and Currents Weather Stations Pressure Air Temp Water Temp Dewpoint Dewpoint Depression Visibility Wind Speed Wind Dir Waves Ship Positions

Mba Future

Last reported at 2017-Nov-17 14:20 UTC. Time now 2017-Dec-15 11:59 UTC.
Position N 17°20' W 060°60'.
Warning: this ship's position is 27 days out of date.

Length 229 m; draft 13.6 m.

Type: Cargo ship. MMSI: 247276600.

Date/timePositionNaut miles runAvg speedWind from/ knotsBaromVisibWave heightAir tempDewpointWater temp
2017-Nov-17 14:20N 17°20' W 060°60'411.0
2017-Nov-17 14:00N 17°22' W 061°03'611.0
2017-Nov-17 13:30N 17°25' W 061°07'510.8
2017-Nov-17 13:00N 17°28' W 061°12'510.6
2017-Nov-17 12:30N 17°32' W 061°16'510.6
2017-Nov-17 12:00N 17°35' W 061°21'510.6
2017-Nov-17 11:30N 17°38' W 061°25'510.6
2017-Nov-17 11:00N 17°41' W 061°30'510.7
2017-Nov-17 10:30N 17°44' W 061°34'510.9
2017-Nov-17 10:00N 17°47' W 061°39'611.1
2017-Nov-17 09:30N 17°51' W 061°44'911.0
2017-Nov-17 08:42N 17°56' W 061°51'310.9
2017-Nov-17 08:28N 17°58' W 061°53'510.8
2017-Nov-17 08:00N 18°01' W 061°57'510.8
2017-Nov-17 07:30N 18°04' W 062°02'510.9
2017-Nov-17 07:00N 18°07' W 062°06'611.0
2017-Nov-17 06:30N 18°10' W 062°11'611.1
2017-Nov-17 06:00N 18°14' W 062°16'611.2
2017-Nov-17 05:29N 18°17' W 062°21'611.5
2017-Nov-17 05:00N 18°20' W 062°25'711.5
2017-Nov-17 04:24N 18°24' W 062°31'611.5
2017-Nov-17 03:55N 18°27' W 062°36'811.4
2017-Nov-17 03:12N 18°31' W 062°44'  
2017-Nov-12 08:00N 23°47' W 084°21'510.4
2017-Nov-12 07:29N 23°48' W 084°27'611.1
2017-Nov-12 06:59N 23°51' W 084°32'611.2
2017-Nov-12 06:29N 23°54' W 084°37'511.2
2017-Nov-12 06:00N 23°57' W 084°42'611.1
2017-Nov-12 05:30N 24°01' W 084°47'611.1
2017-Nov-12 04:59N 24°04' W 084°52'45910.1
2017-Nov-10 07:37N 29°56' W 090°22'  

Dump ship's entire track history